sensor_id;sensor_type;location;lat;lon;timestamp;temperature;humidity
39847;DHT22;25517;52.422;10.782;2022-12-07T00:01:07;3.20;99.90
39847;DHT22;25517;52.422;10.782;2022-12-07T00:03:33;3.20;99.90
39847;DHT22;25517;52.422;10.782;2022-12-07T00:06:00;3.20;99.90
39847;DHT22;25517;52.422;10.782;2022-12-07T00:08:26;3.20;99.90
39847;DHT22;25517;52.422;10.782;2022-12-07T00:10:51;3.20;99.90
39847;DHT22;25517;52.422;10.782;2022-12-07T00:13:17;3.20;99.90
39847;DHT22;25517;52.422;10.782;2022-12-07T00:15:42;3.20;99.90
39847;DHT22;25517;52.422;10.782;2022-12-07T00:18:08;3.20;99.90
39847;DHT22;25517;52.422;10.782;2022-12-07T00:20:33;3.30;99.90
39847;DHT22;25517;52.422;10.782;2022-12-07T00:22:59;3.30;99.90
39847;DHT22;25517;52.422;10.782;2022-12-07T00:25:25;3.30;99.90
39847;DHT22;25517;52.422;10.782;2022-12-07T00:27:52;3.40;99.90
39847;DHT22;25517;52.422;10.782;2022-12-07T00:30:17;3.40;99.90
39847;DHT22;25517;52.422;10.782;2022-12-07T00:32:43;3.40;99.90
39847;DHT22;25517;52.422;10.782;2022-12-07T00:35:08;3.40;99.90
39847;DHT22;25517;52.422;10.782;2022-12-07T00:37:34;3.40;99.90
39847;DHT22;25517;52.422;10.782;2022-12-07T00:40:00;3.40;99.90
39847;DHT22;25517;52.422;10.782;2022-12-07T00:42:29;3.40;99.90
39847;DHT22;25517;52.422;10.782;2022-12-07T00:44:56;3.40;99.90
39847;DHT22;25517;52.422;10.782;2022-12-07T00:47:25;3.40;99.90
39847;DHT22;25517;52.422;10.782;2022-12-07T00:49:50;3.50;99.90
39847;DHT22;25517;52.422;10.782;2022-12-07T00:52:18;3.50;99.90
39847;DHT22;25517;52.422;10.782;2022-12-07T00:54:44;3.50;99.90
39847;DHT22;25517;52.422;10.782;2022-12-07T00:57:10;3.50;99.90
39847;DHT22;25517;52.422;10.782;2022-12-07T00:59:36;3.50;99.90
39847;DHT22;25517;52.422;10.782;2022-12-07T01:02:02;3.60;99.90
39847;DHT22;25517;52.422;10.782;2022-12-07T01:04:28;3.50;99.90
39847;DHT22;25517;52.422;10.782;2022-12-07T01:06:54;3.50;99.90
39847;DHT22;25517;52.422;10.782;2022-12-07T01:09:20;3.50;99.90
39847;DHT22;25517;52.422;10.782;2022-12-07T01:11:45;3.60;99.90
39847;DHT22;25517;52.422;10.782;2022-12-07T01:14:11;3.60;99.90
39847;DHT22;25517;52.422;10.782;2022-12-07T01:16:38;3.60;99.90
39847;DHT22;25517;52.422;10.782;2022-12-07T01:19:04;3.60;99.90
39847;DHT22;25517;52.422;10.782;2022-12-07T01:21:33;3.60;99.90
39847;DHT22;25517;52.422;10.782;2022-12-07T01:24:05;3.60;99.90
39847;DHT22;25517;52.422;10.782;2022-12-07T01:26:31;3.60;99.90
39847;DHT22;25517;52.422;10.782;2022-12-07T01:28:57;3.50;99.90
39847;DHT22;25517;52.422;10.782;2022-12-07T01:31:29;3.50;99.90
39847;DHT22;25517;52.422;10.782;2022-12-07T01:33:56;3.50;99.90
39847;DHT22;25517;52.422;10.782;2022-12-07T01:39:12;3.60;99.90
39847;DHT22;25517;52.422;10.782;2022-12-07T01:41:39;3.60;99.90
39847;DHT22;25517;52.422;10.782;2022-12-07T01:44:13;3.70;99.90
39847;DHT22;25517;52.422;10.782;2022-12-07T01:46:40;3.60;99.90
39847;DHT22;25517;52.422;10.782;2022-12-07T01:49:10;3.70;99.90
39847;DHT22;25517;52.422;10.782;2022-12-07T01:51:38;3.70;99.90
39847;DHT22;25517;52.422;10.782;2022-12-07T01:54:05;3.60;99.90
39847;DHT22;25517;52.422;10.782;2022-12-07T01:56:32;3.60;99.90
39847;DHT22;25517;52.422;10.782;2022-12-07T01:58:58;3.60;99.90
39847;DHT22;25517;52.422;10.782;2022-12-07T02:01:25;3.70;99.90
39847;DHT22;25517;52.422;10.782;2022-12-07T02:03:51;3.70;99.90
39847;DHT22;25517;52.422;10.782;2022-12-07T02:06:20;3.70;99.90
39847;DHT22;25517;52.422;10.782;2022-12-07T02:08:47;3.70;99.90
39847;DHT22;25517;52.422;10.782;2022-12-07T02:11:13;3.70;99.90
39847;DHT22;25517;52.422;10.782;2022-12-07T02:13:41;3.70;99.90
39847;DHT22;25517;52.422;10.782;2022-12-07T02:16:30;3.80;99.90
39847;DHT22;25517;52.422;10.782;2022-12-07T02:21:56;3.80;99.90
39847;DHT22;25517;52.422;10.782;2022-12-07T02:24:48;3.80;99.90
39847;DHT22;25517;52.422;10.782;2022-12-07T02:27:50;3.80;99.90
39847;DHT22;25517;52.422;10.782;2022-12-07T02:30:20;3.80;99.90
39847;DHT22;25517;52.422;10.782;2022-12-07T02:32:56;3.90;99.90
39847;DHT22;25517;52.422;10.782;2022-12-07T02:35:48;3.90;99.90
39847;DHT22;25517;52.422;10.782;2022-12-07T02:38:41;3.90;99.90
39847;DHT22;25517;52.422;10.782;2022-12-07T02:41:13;3.90;99.90
39847;DHT22;25517;52.422;10.782;2022-12-07T02:43:45;3.90;99.90
39847;DHT22;25517;52.422;10.782;2022-12-07T02:46:16;3.90;99.90
39847;DHT22;25517;52.422;10.782;2022-12-07T02:48:46;3.90;99.90
39847;DHT22;25517;52.422;10.782;2022-12-07T02:51:12;3.90;99.90
39847;DHT22;25517;52.422;10.782;2022-12-07T02:53:40;3.90;99.90
39847;DHT22;25517;52.422;10.782;2022-12-07T02:56:34;4.00;99.90
39847;DHT22;25517;52.422;10.782;2022-12-07T03:08:02;4.00;99.90
39847;DHT22;25517;52.422;10.782;2022-12-07T03:10:50;4.00;99.90
39847;DHT22;25517;52.422;10.782;2022-12-07T03:13:45;4.00;99.90
39847;DHT22;25517;52.422;10.782;2022-12-07T03:16:20;4.10;99.90
39847;DHT22;25517;52.422;10.782;2022-12-07T03:18:59;4.10;99.90
39847;DHT22;25517;52.422;10.782;2022-12-07T03:21:29;4.10;99.90
39847;DHT22;25517;52.422;10.782;2022-12-07T03:23:58;4.10;99.90
39847;DHT22;25517;52.422;10.782;2022-12-07T03:26:31;4.10;99.90
39847;DHT22;25517;52.422;10.782;2022-12-07T03:29:05;4.10;99.90
39847;DHT22;25517;52.422;10.782;2022-12-07T03:31:37;4.10;99.90
39847;DHT22;25517;52.422;10.782;2022-12-07T03:34:17;4.10;99.90
39847;DHT22;25517;52.422;10.782;2022-12-07T03:39:47;4.10;99.90
39847;DHT22;25517;52.422;10.782;2022-12-07T03:42:21;4.20;99.90
39847;DHT22;25517;52.422;10.782;2022-12-07T03:44:47;4.20;99.90
39847;DHT22;25517;52.422;10.782;2022-12-07T03:47:39;4.20;99.90
39847;DHT22;25517;52.422;10.782;2022-12-07T03:50:21;4.20;99.90
39847;DHT22;25517;52.422;10.782;2022-12-07T03:53:04;4.30;99.90
39847;DHT22;25517;52.422;10.782;2022-12-07T03:55:35;4.30;99.90
39847;DHT22;25517;52.422;10.782;2022-12-07T03:58:07;4.30;99.90
39847;DHT22;25517;52.422;10.782;2022-12-07T04:00:34;4.30;99.90
39847;DHT22;25517;52.422;10.782;2022-12-07T04:03:00;4.40;99.90
39847;DHT22;25517;52.422;10.782;2022-12-07T04:05:29;4.40;99.90
39847;DHT22;25517;52.422;10.782;2022-12-07T04:07:54;4.40;99.90
39847;DHT22;25517;52.422;10.782;2022-12-07T04:10:20;4.40;99.90
39847;DHT22;25517;52.422;10.782;2022-12-07T04:12:49;4.40;99.90
39847;DHT22;25517;52.422;10.782;2022-12-07T04:15:15;4.40;99.90
39847;DHT22;25517;52.422;10.782;2022-12-07T04:17:41;4.40;99.90
39847;DHT22;25517;52.422;10.782;2022-12-07T04:20:07;4.40;99.90
39847;DHT22;25517;52.422;10.782;2022-12-07T04:22:33;4.40;99.90
39847;DHT22;25517;52.422;10.782;2022-12-07T04:24:59;4.40;99.90
39847;DHT22;25517;52.422;10.782;2022-12-07T04:27:25;4.40;99.90
39847;DHT22;25517;52.422;10.782;2022-12-07T04:29:50;4.40;99.90
39847;DHT22;25517;52.422;10.782;2022-12-07T04:32:16;4.40;99.90
39847;DHT22;25517;52.422;10.782;2022-12-07T04:34:42;4.40;99.90
39847;DHT22;25517;52.422;10.782;2022-12-07T04:37:08;4.40;99.90
39847;DHT22;25517;52.422;10.782;2022-12-07T04:39:34;4.40;99.90
39847;DHT22;25517;52.422;10.782;2022-12-07T04:42:00;4.40;99.90
39847;DHT22;25517;52.422;10.782;2022-12-07T04:44:27;4.40;99.90
39847;DHT22;25517;52.422;10.782;2022-12-07T04:46:54;4.40;99.90
39847;DHT22;25517;52.422;10.782;2022-12-07T04:49:20;4.40;99.90
39847;DHT22;25517;52.422;10.782;2022-12-07T04:51:46;4.40;99.90
39847;DHT22;25517;52.422;10.782;2022-12-07T04:54:13;4.30;99.90
39847;DHT22;25517;52.422;10.782;2022-12-07T04:56:39;4.40;99.90
39847;DHT22;25517;52.422;10.782;2022-12-07T04:59:05;4.40;99.90
39847;DHT22;25517;52.422;10.782;2022-12-07T05:01:32;4.40;99.90
39847;DHT22;25517;52.422;10.782;2022-12-07T05:03:58;4.40;99.90
39847;DHT22;25517;52.422;10.782;2022-12-07T05:06:23;4.40;99.90
39847;DHT22;25517;52.422;10.782;2022-12-07T05:08:49;4.40;99.90
39847;DHT22;25517;52.422;10.782;2022-12-07T05:11:15;4.40;99.90
39847;DHT22;25517;52.422;10.782;2022-12-07T05:13:59;4.40;99.90
39847;DHT22;25517;52.422;10.782;2022-12-07T05:16:25;4.40;99.90
39847;DHT22;25517;52.422;10.782;2022-12-07T05:18:51;4.40;99.90
39847;DHT22;25517;52.422;10.782;2022-12-07T05:21:16;4.40;99.90
39847;DHT22;25517;52.422;10.782;2022-12-07T05:23:42;4.40;99.90
39847;DHT22;25517;52.422;10.782;2022-12-07T05:26:08;4.40;99.90
39847;DHT22;25517;52.422;10.782;2022-12-07T05:28:34;4.30;99.90
39847;DHT22;25517;52.422;10.782;2022-12-07T05:30:59;4.30;99.90
39847;DHT22;25517;52.422;10.782;2022-12-07T05:33:25;4.30;99.90
39847;DHT22;25517;52.422;10.782;2022-12-07T05:35:51;4.30;99.90
39847;DHT22;25517;52.422;10.782;2022-12-07T05:38:16;4.20;99.90
39847;DHT22;25517;52.422;10.782;2022-12-07T05:40:42;4.20;99.90
39847;DHT22;25517;52.422;10.782;2022-12-07T05:43:08;4.20;99.90
39847;DHT22;25517;52.422;10.782;2022-12-07T05:45:34;4.10;99.90
39847;DHT22;25517;52.422;10.782;2022-12-07T05:47:59;4.20;99.90
39847;DHT22;25517;52.422;10.782;2022-12-07T05:50:25;4.20;99.90
39847;DHT22;25517;52.422;10.782;2022-12-07T05:52:50;4.20;99.90
39847;DHT22;25517;52.422;10.782;2022-12-07T05:55:16;4.20;99.90
39847;DHT22;25517;52.422;10.782;2022-12-07T05:57:42;4.20;99.90
39847;DHT22;25517;52.422;10.782;2022-12-07T06:00:31;4.10;99.90
39847;DHT22;25517;52.422;10.782;2022-12-07T06:02:57;4.10;99.90
39847;DHT22;25517;52.422;10.782;2022-12-07T06:05:23;4.10;99.90
39847;DHT22;25517;52.422;10.782;2022-12-07T06:07:49;4.10;99.90
39847;DHT22;25517;52.422;10.782;2022-12-07T06:10:15;4.10;99.90
39847;DHT22;25517;52.422;10.782;2022-12-07T06:12:41;4.00;99.90
39847;DHT22;25517;52.422;10.782;2022-12-07T06:15:09;4.10;99.90
39847;DHT22;25517;52.422;10.782;2022-12-07T06:17:35;4.10;99.90
39847;DHT22;25517;52.422;10.782;2022-12-07T06:20:01;4.00;99.90
39847;DHT22;25517;52.422;10.782;2022-12-07T06:22:26;4.10;99.90
39847;DHT22;25517;52.422;10.782;2022-12-07T06:24:52;4.00;99.90
39847;DHT22;25517;52.422;10.782;2022-12-07T06:27:18;4.00;99.90
39847;DHT22;25517;52.422;10.782;2022-12-07T06:29:44;4.00;99.90
39847;DHT22;25517;52.422;10.782;2022-12-07T06:32:10;3.90;99.90
39847;DHT22;25517;52.422;10.782;2022-12-07T06:34:36;3.90;99.90
39847;DHT22;25517;52.422;10.782;2022-12-07T06:37:02;3.90;99.90
39847;DHT22;25517;52.422;10.782;2022-12-07T06:39:29;3.90;99.90
39847;DHT22;25517;52.422;10.782;2022-12-07T06:41:55;3.90;99.90
39847;DHT22;25517;52.422;10.782;2022-12-07T06:44:22;3.90;99.90
39847;DHT22;25517;52.422;10.782;2022-12-07T06:46:49;3.90;99.90
39847;DHT22;25517;52.422;10.782;2022-12-07T06:49:15;3.80;99.90
39847;DHT22;25517;52.422;10.782;2022-12-07T06:51:41;3.90;99.90
39847;DHT22;25517;52.422;10.782;2022-12-07T06:54:09;3.90;99.90
39847;DHT22;25517;52.422;10.782;2022-12-07T06:56:35;3.90;99.90
39847;DHT22;25517;52.422;10.782;2022-12-07T06:59:01;3.90;99.90
39847;DHT22;25517;52.422;10.782;2022-12-07T07:01:27;3.90;99.90
39847;DHT22;25517;52.422;10.782;2022-12-07T07:03:53;3.90;99.90
39847;DHT22;25517;52.422;10.782;2022-12-07T07:06:19;3.90;99.90
39847;DHT22;25517;52.422;10.782;2022-12-07T07:08:44;3.90;99.90
39847;DHT22;25517;52.422;10.782;2022-12-07T07:11:10;3.90;99.90
39847;DHT22;25517;52.422;10.782;2022-12-07T07:13:36;3.90;99.90
39847;DHT22;25517;52.422;10.782;2022-12-07T07:16:03;3.90;99.90
39847;DHT22;25517;52.422;10.782;2022-12-07T07:18:29;3.90;99.90
39847;DHT22;25517;52.422;10.782;2022-12-07T07:20:55;3.80;99.90
39847;DHT22;25517;52.422;10.782;2022-12-07T07:23:21;3.90;99.90
39847;DHT22;25517;52.422;10.782;2022-12-07T07:25:46;3.80;99.90
39847;DHT22;25517;52.422;10.782;2022-12-07T07:28:12;3.90;99.90
39847;DHT22;25517;52.422;10.782;2022-12-07T07:30:38;3.90;99.90
39847;DHT22;25517;52.422;10.782;2022-12-07T07:33:04;3.90;99.90
39847;DHT22;25517;52.422;10.782;2022-12-07T07:35:32;3.80;99.90
39847;DHT22;25517;52.422;10.782;2022-12-07T07:37:58;3.90;99.90
39847;DHT22;25517;52.422;10.782;2022-12-07T07:40:25;3.80;99.90
39847;DHT22;25517;52.422;10.782;2022-12-07T07:42:52;3.80;99.90
39847;DHT22;25517;52.422;10.782;2022-12-07T07:45:19;3.80;99.90
39847;DHT22;25517;52.422;10.782;2022-12-07T07:47:45;3.80;99.90
39847;DHT22;25517;52.422;10.782;2022-12-07T07:50:11;3.80;99.90
39847;DHT22;25517;52.422;10.782;2022-12-07T07:52:37;3.80;99.90
39847;DHT22;25517;52.422;10.782;2022-12-07T07:55:03;3.80;99.90
39847;DHT22;25517;52.422;10.782;2022-12-07T07:57:29;3.80;99.90
39847;DHT22;25517;52.422;10.782;2022-12-07T07:59:54;3.80;99.90
39847;DHT22;25517;52.422;10.782;2022-12-07T08:02:21;3.80;99.90
39847;DHT22;25517;52.422;10.782;2022-12-07T08:04:47;3.80;99.90
39847;DHT22;25517;52.422;10.782;2022-12-07T08:07:14;3.80;99.90
39847;DHT22;25517;52.422;10.782;2022-12-07T08:09:41;3.80;99.90
39847;DHT22;25517;52.422;10.782;2022-12-07T08:12:07;3.80;99.90
39847;DHT22;25517;52.422;10.782;2022-12-07T08:14:33;3.80;99.90
39847;DHT22;25517;52.422;10.782;2022-12-07T08:16:59;3.90;99.90
39847;DHT22;25517;52.422;10.782;2022-12-07T08:19:25;3.90;99.90
39847;DHT22;25517;52.422;10.782;2022-12-07T08:21:51;4.00;99.90
39847;DHT22;25517;52.422;10.782;2022-12-07T08:24:16;4.00;99.90
39847;DHT22;25517;52.422;10.782;2022-12-07T08:26:42;4.00;99.90
39847;DHT22;25517;52.422;10.782;2022-12-07T08:29:08;4.00;99.90
39847;DHT22;25517;52.422;10.782;2022-12-07T08:31:33;4.00;99.90
39847;DHT22;25517;52.422;10.782;2022-12-07T08:33:59;4.00;99.90
39847;DHT22;25517;52.422;10.782;2022-12-07T08:36:25;4.00;99.90
39847;DHT22;25517;52.422;10.782;2022-12-07T08:38:50;4.00;99.90
39847;DHT22;25517;52.422;10.782;2022-12-07T08:41:16;4.00;99.90
39847;DHT22;25517;52.422;10.782;2022-12-07T08:43:41;4.00;99.90
39847;DHT22;25517;52.422;10.782;2022-12-07T08:46:17;4.10;99.90
39847;DHT22;25517;52.422;10.782;2022-12-07T08:48:52;4.00;99.90
39847;DHT22;25517;52.422;10.782;2022-12-07T08:51:19;4.10;99.90
39847;DHT22;25517;52.422;10.782;2022-12-07T08:53:46;4.10;99.90
39847;DHT22;25517;52.422;10.782;2022-12-07T08:56:12;4.10;99.90
39847;DHT22;25517;52.422;10.782;2022-12-07T08:58:38;4.10;99.90
39847;DHT22;25517;52.422;10.782;2022-12-07T09:01:04;4.20;99.90
39847;DHT22;25517;52.422;10.782;2022-12-07T09:03:30;4.20;99.90
39847;DHT22;25517;52.422;10.782;2022-12-07T09:05:56;4.20;99.90
39847;DHT22;25517;52.422;10.782;2022-12-07T09:08:26;4.20;99.90
39847;DHT22;25517;52.422;10.782;2022-12-07T09:10:54;4.20;99.90
39847;DHT22;25517;52.422;10.782;2022-12-07T09:13:20;4.30;99.90
39847;DHT22;25517;52.422;10.782;2022-12-07T09:15:45;4.40;99.90
39847;DHT22;25517;52.422;10.782;2022-12-07T09:18:11;4.40;99.90
39847;DHT22;25517;52.422;10.782;2022-12-07T09:20:36;4.40;99.90
39847;DHT22;25517;52.422;10.782;2022-12-07T09:23:02;4.40;99.90
39847;DHT22;25517;52.422;10.782;2022-12-07T09:25:27;4.40;99.90
39847;DHT22;25517;52.422;10.782;2022-12-07T09:27:57;4.40;99.90
39847;DHT22;25517;52.422;10.782;2022-12-07T09:30:23;4.40;99.90
39847;DHT22;25517;52.422;10.782;2022-12-07T09:32:48;4.40;99.90
39847;DHT22;25517;52.422;10.782;2022-12-07T09:35:14;4.50;99.90
39847;DHT22;25517;52.422;10.782;2022-12-07T09:37:40;4.40;99.90
39847;DHT22;25517;52.422;10.782;2022-12-07T09:40:06;4.50;99.90
39847;DHT22;25517;52.422;10.782;2022-12-07T09:42:37;4.50;99.90
39847;DHT22;25517;52.422;10.782;2022-12-07T09:45:06;4.50;99.90
39847;DHT22;25517;52.422;10.782;2022-12-07T09:47:33;4.50;99.90
39847;DHT22;25517;52.422;10.782;2022-12-07T09:50:04;4.50;99.90
39847;DHT22;25517;52.422;10.782;2022-12-07T09:52:30;4.50;99.90
39847;DHT22;25517;52.422;10.782;2022-12-07T09:54:56;4.50;99.90
39847;DHT22;25517;52.422;10.782;2022-12-07T09:57:28;4.60;99.90
39847;DHT22;25517;52.422;10.782;2022-12-07T10:00:02;4.50;99.90
39847;DHT22;25517;52.422;10.782;2022-12-07T10:02:39;4.60;99.90
39847;DHT22;25517;52.422;10.782;2022-12-07T10:05:18;4.80;99.90
39847;DHT22;25517;52.422;10.782;2022-12-07T10:07:44;4.80;99.90
39847;DHT22;25517;52.422;10.782;2022-12-07T10:10:15;4.80;99.90
39847;DHT22;25517;52.422;10.782;2022-12-07T10:13:04;4.80;99.90
39847;DHT22;25517;52.422;10.782;2022-12-07T10:15:54;4.80;99.90
39847;DHT22;25517;52.422;10.782;2022-12-07T10:21:16;4.60;99.90
39847;DHT22;25517;52.422;10.782;2022-12-07T10:24:05;4.60;99.90
39847;DHT22;25517;52.422;10.782;2022-12-07T10:26:51;4.50;99.90
39847;DHT22;25517;52.422;10.782;2022-12-07T10:29:33;4.50;99.90
39847;DHT22;25517;52.422;10.782;2022-12-07T10:34:36;4.50;99.90
39847;DHT22;25517;52.422;10.782;2022-12-07T10:39:53;4.50;99.90
39847;DHT22;25517;52.422;10.782;2022-12-07T10:42:30;4.50;99.90
39847;DHT22;25517;52.422;10.782;2022-12-07T10:45:18;4.50;99.90
39847;DHT22;25517;52.422;10.782;2022-12-07T10:48:02;4.60;99.90
39847;DHT22;25517;52.422;10.782;2022-12-07T10:51:10;4.60;99.90
39847;DHT22;25517;52.422;10.782;2022-12-07T10:59:34;4.80;99.90
39847;DHT22;25517;52.422;10.782;2022-12-07T11:02:35;4.80;99.90
39847;DHT22;25517;52.422;10.782;2022-12-07T11:08:38;5.20;99.90
39847;DHT22;25517;52.422;10.782;2022-12-07T11:11:33;5.20;99.90
39847;DHT22;25517;52.422;10.782;2022-12-07T11:16:56;5.10;99.90
39847;DHT22;25517;52.422;10.782;2022-12-07T11:19:34;5.10;99.90
39847;DHT22;25517;52.422;10.782;2022-12-07T11:22:23;4.90;99.90
39847;DHT22;25517;52.422;10.782;2022-12-07T11:25:18;4.90;99.90
39847;DHT22;25517;52.422;10.782;2022-12-07T11:28:16;4.90;99.90
39847;DHT22;25517;52.422;10.782;2022-12-07T11:38:42;5.30;99.90
39847;DHT22;25517;52.422;10.782;2022-12-07T11:41:09;5.30;99.90
39847;DHT22;25517;52.422;10.782;2022-12-07T11:43:59;5.40;99.90
39847;DHT22;25517;52.422;10.782;2022-12-07T11:46:36;5.50;99.90
39847;DHT22;25517;52.422;10.782;2022-12-07T11:51:43;5.60;99.90
39847;DHT22;25517;52.422;10.782;2022-12-07T11:54:16;5.60;99.90
39847;DHT22;25517;52.422;10.782;2022-12-07T11:56:43;5.50;99.90
39847;DHT22;25517;52.422;10.782;2022-12-07T11:59:20;5.50;99.90
39847;DHT22;25517;52.422;10.782;2022-12-07T12:02:15;5.40;99.90
39847;DHT22;25517;52.422;10.782;2022-12-07T12:07:22;5.30;99.90
39847;DHT22;25517;52.422;10.782;2022-12-07T12:09:53;5.20;99.90
39847;DHT22;25517;52.422;10.782;2022-12-07T12:12:52;5.10;99.90
39847;DHT22;25517;52.422;10.782;2022-12-07T12:18:49;5.00;99.90
39847;DHT22;25517;52.422;10.782;2022-12-07T12:21:16;5.00;99.90
39847;DHT22;25517;52.422;10.782;2022-12-07T12:23:47;5.00;99.90
39847;DHT22;25517;52.422;10.782;2022-12-07T12:26:23;5.00;99.90
39847;DHT22;25517;52.422;10.782;2022-12-07T12:28:56;5.00;99.90
39847;DHT22;25517;52.422;10.782;2022-12-07T12:34:00;5.10;99.90
39847;DHT22;25517;52.422;10.782;2022-12-07T12:36:44;5.20;99.90
39847;DHT22;25517;52.422;10.782;2022-12-07T12:39:11;5.20;99.90
39847;DHT22;25517;52.422;10.782;2022-12-07T12:46:51;5.10;99.90
39847;DHT22;25517;52.422;10.782;2022-12-07T12:51:58;5.20;99.90
39847;DHT22;25517;52.422;10.782;2022-12-07T12:54:29;5.30;99.90
39847;DHT22;25517;52.422;10.782;2022-12-07T12:57:10;5.40;99.90
39847;DHT22;25517;52.422;10.782;2022-12-07T13:02:33;5.70;99.90
39847;DHT22;25517;52.422;10.782;2022-12-07T13:05:19;5.70;99.90
39847;DHT22;25517;52.422;10.782;2022-12-07T13:18:37;5.30;99.90
39847;DHT22;25517;52.422;10.782;2022-12-07T13:31:35;5.10;99.90
39847;DHT22;25517;52.422;10.782;2022-12-07T13:34:04;5.00;99.90
39847;DHT22;25517;52.422;10.782;2022-12-07T13:36:33;5.10;99.90
39847;DHT22;25517;52.422;10.782;2022-12-07T13:39:17;5.00;99.90
39847;DHT22;25517;52.422;10.782;2022-12-07T13:41:43;5.00;99.90
39847;DHT22;25517;52.422;10.782;2022-12-07T13:44:12;4.90;99.90
39847;DHT22;25517;52.422;10.782;2022-12-07T13:47:06;4.90;99.90
39847;DHT22;25517;52.422;10.782;2022-12-07T13:49:55;4.90;99.90
39847;DHT22;25517;52.422;10.782;2022-12-07T13:52:23;4.90;99.90
39847;DHT22;25517;52.422;10.782;2022-12-07T13:55:06;4.90;99.90
39847;DHT22;25517;52.422;10.782;2022-12-07T13:57:41;5.00;99.90
39847;DHT22;25517;52.422;10.782;2022-12-07T14:00:34;4.90;99.90
39847;DHT22;25517;52.422;10.782;2022-12-07T14:05:41;4.90;99.90
39847;DHT22;25517;52.422;10.782;2022-12-07T14:13:33;4.80;99.90
39847;DHT22;25517;52.422;10.782;2022-12-07T14:15:59;4.80;99.90
39847;DHT22;25517;52.422;10.782;2022-12-07T14:18:28;4.80;99.90
39847;DHT22;25517;52.422;10.782;2022-12-07T14:21:17;4.80;99.90
39847;DHT22;25517;52.422;10.782;2022-12-07T14:26:34;4.80;99.90
39847;DHT22;25517;52.422;10.782;2022-12-07T14:29:28;4.70;99.90
39847;DHT22;25517;52.422;10.782;2022-12-07T14:31:55;4.70;99.90
39847;DHT22;25517;52.422;10.782;2022-12-07T14:34:22;4.60;99.90
39847;DHT22;25517;52.422;10.782;2022-12-07T14:36:48;4.70;99.90
39847;DHT22;25517;52.422;10.782;2022-12-07T14:39:14;4.70;99.90
39847;DHT22;25517;52.422;10.782;2022-12-07T14:41:40;4.60;99.90
39847;DHT22;25517;52.422;10.782;2022-12-07T14:44:19;4.60;99.90
39847;DHT22;25517;52.422;10.782;2022-12-07T14:46:47;4.60;99.90
39847;DHT22;25517;52.422;10.782;2022-12-07T14:49:12;4.50;99.90
39847;DHT22;25517;52.422;10.782;2022-12-07T14:51:39;4.20;99.90
39847;DHT22;25517;52.422;10.782;2022-12-07T14:54:06;4.00;99.90
39847;DHT22;25517;52.422;10.782;2022-12-07T14:56:34;3.80;99.90
39847;DHT22;25517;52.422;10.782;2022-12-07T14:59:00;3.70;99.90
39847;DHT22;25517;52.422;10.782;2022-12-07T15:01:26;3.60;99.90
39847;DHT22;25517;52.422;10.782;2022-12-07T15:03:51;3.50;99.90
39847;DHT22;25517;52.422;10.782;2022-12-07T15:06:18;3.40;99.90
39847;DHT22;25517;52.422;10.782;2022-12-07T15:08:44;3.30;99.90
39847;DHT22;25517;52.422;10.782;2022-12-07T15:11:17;3.20;99.90
39847;DHT22;25517;52.422;10.782;2022-12-07T15:13:43;3.20;99.90
39847;DHT22;25517;52.422;10.782;2022-12-07T15:16:27;3.10;99.90
39847;DHT22;25517;52.422;10.782;2022-12-07T15:18:53;3.10;99.90
39847;DHT22;25517;52.422;10.782;2022-12-07T15:21:19;3.10;99.90
39847;DHT22;25517;52.422;10.782;2022-12-07T15:23:46;3.10;99.90
39847;DHT22;25517;52.422;10.782;2022-12-07T15:26:15;3.10;99.90
39847;DHT22;25517;52.422;10.782;2022-12-07T15:28:41;3.10;99.90
39847;DHT22;25517;52.422;10.782;2022-12-07T15:31:15;3.10;99.90
39847;DHT22;25517;52.422;10.782;2022-12-07T15:33:41;3.10;99.90
39847;DHT22;25517;52.422;10.782;2022-12-07T15:36:07;3.20;99.90
39847;DHT22;25517;52.422;10.782;2022-12-07T15:38:33;3.10;99.90
39847;DHT22;25517;52.422;10.782;2022-12-07T15:40:59;3.10;99.90
39847;DHT22;25517;52.422;10.782;2022-12-07T15:43:24;3.10;99.90
39847;DHT22;25517;52.422;10.782;2022-12-07T15:46:08;3.10;99.90
39847;DHT22;25517;52.422;10.782;2022-12-07T15:48:34;3.10;99.90
39847;DHT22;25517;52.422;10.782;2022-12-07T15:51:07;3.10;99.90
39847;DHT22;25517;52.422;10.782;2022-12-07T15:53:34;3.00;99.90
39847;DHT22;25517;52.422;10.782;2022-12-07T15:56:00;3.00;99.90
39847;DHT22;25517;52.422;10.782;2022-12-07T15:58:26;3.00;99.90
39847;DHT22;25517;52.422;10.782;2022-12-07T16:00:52;3.00;99.90
39847;DHT22;25517;52.422;10.782;2022-12-07T16:03:18;2.80;99.90
39847;DHT22;25517;52.422;10.782;2022-12-07T16:05:51;2.70;99.90
39847;DHT22;25517;52.422;10.782;2022-12-07T16:08:17;2.50;99.90
39847;DHT22;25517;52.422;10.782;2022-12-07T16:10:43;2.40;99.90
39847;DHT22;25517;52.422;10.782;2022-12-07T16:13:12;2.20;99.90
39847;DHT22;25517;52.422;10.782;2022-12-07T16:15:42;2.10;99.90
39847;DHT22;25517;52.422;10.782;2022-12-07T16:18:08;2.00;99.90
39847;DHT22;25517;52.422;10.782;2022-12-07T16:20:34;1.90;99.90
39847;DHT22;25517;52.422;10.782;2022-12-07T16:23:00;1.90;99.90
39847;DHT22;25517;52.422;10.782;2022-12-07T16:25:26;1.80;99.90
39847;DHT22;25517;52.422;10.782;2022-12-07T16:27:52;1.80;99.90
39847;DHT22;25517;52.422;10.782;2022-12-07T16:30:19;1.80;99.90
39847;DHT22;25517;52.422;10.782;2022-12-07T16:32:55;1.80;99.90
39847;DHT22;25517;52.422;10.782;2022-12-07T16:35:21;1.80;99.90
39847;DHT22;25517;52.422;10.782;2022-12-07T16:37:48;1.70;99.90
39847;DHT22;25517;52.422;10.782;2022-12-07T16:40:14;1.70;99.90
39847;DHT22;25517;52.422;10.782;2022-12-07T16:42:40;1.60;99.90
39847;DHT22;25517;52.422;10.782;2022-12-07T16:45:11;1.60;99.90
39847;DHT22;25517;52.422;10.782;2022-12-07T16:47:40;1.70;99.90
39847;DHT22;25517;52.422;10.782;2022-12-07T16:50:07;1.70;99.90
39847;DHT22;25517;52.422;10.782;2022-12-07T16:52:33;1.70;99.90
39847;DHT22;25517;52.422;10.782;2022-12-07T16:54:59;1.70;99.90
39847;DHT22;25517;52.422;10.782;2022-12-07T16:57:25;1.70;99.90
39847;DHT22;25517;52.422;10.782;2022-12-07T16:59:52;1.80;99.90
39847;DHT22;25517;52.422;10.782;2022-12-07T17:02:17;1.70;99.90
39847;DHT22;25517;52.422;10.782;2022-12-07T17:04:43;1.70;99.90
39847;DHT22;25517;52.422;10.782;2022-12-07T17:07:08;1.80;99.90
39847;DHT22;25517;52.422;10.782;2022-12-07T17:09:35;1.80;99.90
39847;DHT22;25517;52.422;10.782;2022-12-07T17:12:01;1.80;99.90
39847;DHT22;25517;52.422;10.782;2022-12-07T17:14:27;1.80;99.90
39847;DHT22;25517;52.422;10.782;2022-12-07T17:17:12;1.80;99.90
39847;DHT22;25517;52.422;10.782;2022-12-07T17:19:37;1.70;99.90
39847;DHT22;25517;52.422;10.782;2022-12-07T17:22:03;1.80;99.90
39847;DHT22;25517;52.422;10.782;2022-12-07T17:24:29;1.80;99.90
39847;DHT22;25517;52.422;10.782;2022-12-07T17:26:55;1.90;99.90